createdAt,value
2019-03-26T00:02:19.094Z,62.90
2019-03-26T00:09:06.835Z,62.40
2019-03-26T00:15:51.701Z,62.50
2019-03-26T00:22:36.716Z,62.50
2019-03-26T00:29:21.631Z,62.10
2019-03-26T00:36:06.491Z,62.00
2019-03-26T00:42:53.118Z,61.90
2019-03-26T00:49:37.978Z,61.80
2019-03-26T00:56:22.850Z,61.80
2019-03-26T01:03:09.117Z,61.90
2019-03-26T01:09:55.180Z,62.30
2019-03-26T01:16:40.181Z,62.80
2019-03-26T01:23:25.150Z,63.40
2019-03-26T01:30:11.545Z,64.10
2019-03-26T01:36:56.830Z,64.20
2019-03-26T01:43:41.763Z,64.30
2019-03-26T01:50:26.694Z,64.40
2019-03-26T01:57:11.563Z,65.30
2019-03-26T02:03:56.423Z,66.90
2019-03-26T02:10:41.293Z,68.80
2019-03-26T02:17:26.461Z,71.70
2019-03-26T02:24:11.530Z,73.40
2019-03-26T02:30:56.739Z,73.80
2019-03-26T02:37:42.068Z,74.10
2019-03-26T02:44:27.029Z,74.40
2019-03-26T02:51:11.971Z,75.50
2019-03-26T02:57:56.824Z,76.50
2019-03-26T03:04:41.681Z,77.00
2019-03-26T03:11:26.539Z,77.80
2019-03-26T03:18:12.163Z,78.60
2019-03-26T03:24:57.426Z,77.50
2019-03-26T03:31:42.421Z,76.00
2019-03-26T03:38:27.271Z,75.60
2019-03-26T03:45:14.336Z,75.40
2019-03-26T03:52:00.916Z,74.70
2019-03-26T03:58:47.603Z,74.00
2019-03-26T04:05:32.568Z,72.80
2019-03-26T04:12:17.435Z,72.20
2019-03-26T04:19:02.288Z,71.30
2019-03-26T04:25:47.336Z,69.90
2019-03-26T04:32:32.407Z,69.90
2019-03-26T04:39:17.360Z,69.60
2019-03-26T04:46:02.568Z,70.10
2019-03-26T04:52:47.443Z,72.20
2019-03-26T04:59:32.302Z,73.60
2019-03-26T05:06:17.247Z,74.70
2019-03-26T05:13:02.183Z,74.50
2019-03-26T05:19:47.039Z,73.80
2019-03-26T05:26:31.903Z,74.40
2019-03-26T05:33:16.780Z,73.70
2019-03-26T05:40:01.676Z,73.10
2019-03-26T05:46:46.771Z,72.90
2019-03-26T05:53:34.495Z,71.20
2019-03-26T06:00:21.083Z,68.50
2019-03-26T06:07:05.949Z,65.70
2019-03-26T06:13:50.806Z,64.50
2019-03-26T06:20:35.683Z,63.80
2019-03-26T06:27:20.619Z,62.90
2019-03-26T06:34:05.482Z,62.10
2019-03-26T06:40:50.712Z,61.50
2019-03-26T06:47:35.576Z,61.70
2019-03-26T06:54:20.444Z,62.00
2019-03-26T07:01:05.623Z,61.40
2019-03-26T07:07:50.514Z,60.80
2019-03-26T07:14:35.548Z,60.50
2019-03-26T07:21:20.930Z,61.00
2019-03-26T07:28:05.915Z,60.40
2019-03-26T07:34:50.784Z,59.70
2019-03-26T07:41:35.648Z,58.90
2019-03-26T07:48:20.519Z,58.30
2019-03-26T07:55:07.973Z,58.00
2019-03-26T08:01:53.810Z,55.90
2019-03-26T08:08:40.727Z,54.60
2019-03-26T08:15:25.491Z,53.40
2019-03-26T08:22:10.359Z,50.70
2019-03-26T08:28:55.223Z,50.20
2019-03-26T08:35:40.085Z,49.30
2019-03-26T08:42:24.939Z,49.30
2019-03-26T08:49:09.921Z,49.00
2019-03-26T08:55:54.855Z,48.60
2019-03-26T09:02:39.782Z,45.30
2019-03-26T09:09:24.642Z,43.20
2019-03-26T09:16:09.503Z,40.50
2019-03-26T09:22:54.443Z,36.50
2019-03-26T09:29:39.307Z,35.00
2019-03-26T09:36:25.144Z,33.90
2019-03-26T09:43:10.082Z,26.00
2019-03-26T09:49:54.934Z,27.60
2019-03-26T09:56:39.843Z,30.30
2019-03-26T10:03:24.724Z,36.90
2019-03-26T10:10:11.878Z,41.10
2019-03-26T10:16:56.766Z,43.70
2019-03-26T10:23:41.691Z,45.00
2019-03-26T10:30:38.911Z,44.20
2019-03-26T10:37:23.779Z,41.10
2019-03-26T10:44:08.719Z,39.10
2019-03-26T10:50:53.582Z,37.90
2019-03-26T10:57:38.708Z,34.80
2019-03-26T11:04:24.095Z,30.90
2019-03-26T11:11:09.090Z,28.70
2019-03-26T11:17:54.016Z,29.20
2019-03-26T11:24:38.880Z,29.70
2019-03-26T11:31:23.738Z,29.70
2019-03-26T11:38:08.669Z,29.40
2019-03-26T11:44:53.598Z,29.20
2019-03-26T11:51:38.459Z,28.30
2019-03-26T11:58:30.306Z,30.60
2019-03-26T12:05:10.300Z,32.80
2019-03-26T12:11:55.222Z,32.00
2019-03-26T12:18:40.096Z,30.50
2019-03-26T12:25:25.031Z,28.00
2019-03-26T12:32:09.963Z,27.00
2019-03-26T12:38:55.775Z,27.20
2019-03-26T12:45:40.849Z,26.40
2019-03-26T12:52:25.855Z,27.80
2019-03-26T12:59:10.729Z,28.30
2019-03-26T13:05:55.771Z,27.80
2019-03-26T13:12:40.811Z,27.70
2019-03-26T13:19:25.671Z,26.90
2019-03-26T13:26:10.737Z,25.70
2019-03-26T13:32:55.891Z,26.30
2019-03-26T13:39:41.185Z,26.80
2019-03-26T13:46:26.044Z,27.70
2019-03-26T13:53:11.046Z,27.50
2019-03-26T13:59:56.455Z,27.50
2019-03-26T14:06:41.327Z,27.80
2019-03-26T14:13:26.276Z,28.10
2019-03-26T14:20:12.046Z,28.50
2019-03-26T14:26:57.104Z,28.20
2019-03-26T14:33:42.047Z,27.70
2019-03-26T14:40:27.015Z,29.00
2019-03-26T14:47:12.052Z,28.30
2019-03-26T14:53:56.910Z,28.80
2019-03-26T15:00:41.908Z,28.40
2019-03-26T15:07:27.214Z,28.00
2019-03-26T15:14:12.153Z,26.60
2019-03-26T15:20:57.195Z,26.10
2019-03-26T15:27:42.187Z,24.60
2019-03-26T15:34:36.016Z,25.90
2019-03-26T15:41:21.424Z,26.20
2019-03-26T15:48:00.543Z,27.20
2019-03-26T15:54:45.603Z,26.80
2019-03-26T16:01:31.631Z,26.80
2019-03-26T16:08:16.606Z,31.80
2019-03-26T16:15:01.770Z,33.40
2019-03-26T16:21:48.016Z,32.50
2019-03-26T16:28:33.217Z,32.60
2019-03-26T16:35:18.103Z,32.60
2019-03-26T16:42:03.364Z,33.50
2019-03-26T16:48:48.989Z,33.80
2019-03-26T16:55:34.357Z,33.90
2019-03-26T17:02:20.127Z,34.30
2019-03-26T17:09:07.565Z,34.20
2019-03-26T17:15:52.599Z,34.20
2019-03-26T17:22:37.461Z,34.30
2019-03-26T17:29:22.432Z,33.70
2019-03-26T17:36:07.476Z,32.70
2019-03-26T17:42:53.764Z,32.00
2019-03-26T17:49:38.770Z,30.70
2019-03-26T17:56:24.327Z,30.40
2019-03-26T18:03:09.323Z,30.70
2019-03-26T18:09:54.246Z,31.30
2019-03-26T18:16:40.248Z,32.00
2019-03-26T18:23:25.169Z,32.80
2019-03-26T18:30:10.367Z,33.00
2019-03-26T18:36:55.361Z,33.80
2019-03-26T18:43:40.451Z,33.20
2019-03-26T18:50:25.353Z,34.60
2019-03-26T18:57:10.302Z,35.40
2019-03-26T19:03:55.218Z,34.60
2019-03-26T19:10:40.228Z,34.60
2019-03-26T19:17:25.311Z,34.70
2019-03-26T19:24:10.493Z,35.60
2019-03-26T19:30:55.428Z,36.50
2019-03-26T19:37:40.703Z,37.10
2019-03-26T19:44:25.729Z,37.50
2019-03-26T19:51:10.651Z,37.40
2019-03-26T19:57:55.511Z,36.90
2019-03-26T20:04:40.376Z,37.40
2019-03-26T20:11:25.538Z,38.20
2019-03-26T20:18:10.476Z,38.80
2019-03-26T20:24:55.348Z,39.10
2019-03-26T20:31:40.518Z,39.20
2019-03-26T20:38:25.375Z,38.70
2019-03-26T20:45:14.155Z,38.80
2019-03-26T20:51:59.426Z,39.10
2019-03-26T20:58:45.116Z,39.60
2019-03-26T21:05:30.115Z,39.00
2019-03-26T21:12:15.095Z,39.60
2019-03-26T21:18:59.960Z,39.60
2019-03-26T21:25:45.708Z,39.10
2019-03-26T21:32:30.806Z,39.10
2019-03-26T21:39:15.672Z,39.30
2019-03-26T21:46:00.593Z,39.20
2019-03-26T21:52:45.598Z,39.50
2019-03-26T21:59:30.507Z,40.30
2019-03-26T22:06:15.479Z,41.20
2019-03-26T22:13:00.983Z,41.10
2019-03-26T22:19:45.898Z,42.40
2019-03-26T22:26:30.766Z,42.50
2019-03-26T22:33:15.621Z,42.10
2019-03-26T22:40:00.479Z,42.10
2019-03-26T22:46:45.407Z,42.10
2019-03-26T22:53:31.588Z,41.90
2019-03-26T23:00:19.832Z,41.00
2019-03-26T23:07:06.431Z,41.10
2019-03-26T23:13:52.082Z,41.80
2019-03-26T23:20:37.171Z,41.90
2019-03-26T23:27:22.026Z,42.40
2019-03-26T23:34:06.977Z,42.90
2019-03-26T23:40:51.907Z,41.40
2019-03-26T23:47:36.913Z,41.80
2019-03-26T23:54:21.838Z,41.80
